sensor_id;sensor_type;location;lat;lon;timestamp;P1;durP1;ratioP1;P2;durP2;ratioP2
6113;SDS011;3087;48.392;10.836;2023-04-15T00:00:36;5.27;;;4.27;;
6113;SDS011;3087;48.392;10.836;2023-04-15T00:03:01;6.77;;;4.60;;
6113;SDS011;3087;48.392;10.836;2023-04-15T00:05:31;7.03;;;4.23;;
6113;SDS011;3087;48.392;10.836;2023-04-15T00:07:57;7.67;;;4.43;;
6113;SDS011;3087;48.392;10.836;2023-04-15T00:10:25;6.70;;;4.50;;
6113;SDS011;3087;48.392;10.836;2023-04-15T00:12:51;5.43;;;4.20;;
6113;SDS011;3087;48.392;10.836;2023-04-15T00:15:18;6.17;;;4.00;;
6113;SDS011;3087;48.392;10.836;2023-04-15T00:17:49;5.57;;;4.40;;
6113;SDS011;3087;48.392;10.836;2023-04-15T00:20:16;5.40;;;4.20;;
6113;SDS011;3087;48.392;10.836;2023-04-15T00:22:42;5.47;;;3.90;;
6113;SDS011;3087;48.392;10.836;2023-04-15T00:25:08;6.30;;;3.97;;
6113;SDS011;3087;48.392;10.836;2023-04-15T00:27:33;5.80;;;4.00;;
6113;SDS011;3087;48.392;10.836;2023-04-15T00:29:59;6.73;;;4.50;;
6113;SDS011;3087;48.392;10.836;2023-04-15T00:32:26;4.88;;;4.28;;
6113;SDS011;3087;48.392;10.836;2023-04-15T00:34:51;5.28;;;4.10;;
6113;SDS011;3087;48.392;10.836;2023-04-15T00:37:17;5.13;;;4.43;;
6113;SDS011;3087;48.392;10.836;2023-04-15T00:39:43;5.90;;;4.60;;
6113;SDS011;3087;48.392;10.836;2023-04-15T00:42:09;4.10;;;3.70;;
6113;SDS011;3087;48.392;10.836;2023-04-15T00:44:36;6.77;;;4.67;;
6113;SDS011;3087;48.392;10.836;2023-04-15T00:47:01;6.93;;;4.38;;
6113;SDS011;3087;48.392;10.836;2023-04-15T00:49:29;4.30;;;3.90;;
6113;SDS011;3087;48.392;10.836;2023-04-15T00:51:56;5.27;;;4.47;;
6113;SDS011;3087;48.392;10.836;2023-04-15T00:54:21;5.57;;;4.33;;
6113;SDS011;3087;48.392;10.836;2023-04-15T00:56:50;5.10;;;3.97;;
6113;SDS011;3087;48.392;10.836;2023-04-15T00:59:16;7.47;;;4.37;;
6113;SDS011;3087;48.392;10.836;2023-04-15T01:01:42;5.07;;;4.20;;
6113;SDS011;3087;48.392;10.836;2023-04-15T01:04:09;9.23;;;4.53;;
6113;SDS011;3087;48.392;10.836;2023-04-15T01:06:36;4.20;;;3.80;;
6113;SDS011;3087;48.392;10.836;2023-04-15T01:09:03;7.10;;;5.17;;
6113;SDS011;3087;48.392;10.836;2023-04-15T01:11:29;6.20;;;4.43;;
6113;SDS011;3087;48.392;10.836;2023-04-15T01:13:58;5.27;;;3.87;;
6113;SDS011;3087;48.392;10.836;2023-04-15T01:16:24;6.77;;;3.77;;
6113;SDS011;3087;48.392;10.836;2023-04-15T01:18:51;6.57;;;4.40;;
6113;SDS011;3087;48.392;10.836;2023-04-15T01:21:17;5.17;;;3.97;;
6113;SDS011;3087;48.392;10.836;2023-04-15T01:23:44;4.93;;;3.83;;
6113;SDS011;3087;48.392;10.836;2023-04-15T01:26:12;6.07;;;4.70;;
6113;SDS011;3087;48.392;10.836;2023-04-15T01:28:38;6.77;;;4.37;;
6113;SDS011;3087;48.392;10.836;2023-04-15T01:31:04;5.53;;;3.93;;
6113;SDS011;3087;48.392;10.836;2023-04-15T01:33:32;9.10;;;4.60;;
6113;SDS011;3087;48.392;10.836;2023-04-15T01:35:57;5.87;;;4.23;;
6113;SDS011;3087;48.392;10.836;2023-04-15T01:38:24;6.60;;;4.10;;
6113;SDS011;3087;48.392;10.836;2023-04-15T01:40:50;5.30;;;4.60;;
6113;SDS011;3087;48.392;10.836;2023-04-15T01:43:19;5.07;;;3.67;;
6113;SDS011;3087;48.392;10.836;2023-04-15T01:45:44;4.47;;;3.88;;
6113;SDS011;3087;48.392;10.836;2023-04-15T01:48:11;7.03;;;4.40;;
6113;SDS011;3087;48.392;10.836;2023-04-15T01:50:36;6.00;;;4.20;;
6113;SDS011;3087;48.392;10.836;2023-04-15T01:53:02;4.50;;;3.87;;
6113;SDS011;3087;48.392;10.836;2023-04-15T01:55:28;5.77;;;3.97;;
6113;SDS011;3087;48.392;10.836;2023-04-15T01:57:54;7.63;;;4.23;;
6113;SDS011;3087;48.392;10.836;2023-04-15T02:00:21;5.37;;;3.97;;
6113;SDS011;3087;48.392;10.836;2023-04-15T02:02:47;5.30;;;3.97;;
6113;SDS011;3087;48.392;10.836;2023-04-15T02:05:12;5.17;;;4.17;;
6113;SDS011;3087;48.392;10.836;2023-04-15T02:07:38;6.00;;;4.77;;
6113;SDS011;3087;48.392;10.836;2023-04-15T02:10:04;5.70;;;4.23;;
6113;SDS011;3087;48.392;10.836;2023-04-15T02:12:30;5.03;;;3.93;;
6113;SDS011;3087;48.392;10.836;2023-04-15T02:14:55;7.10;;;4.43;;
6113;SDS011;3087;48.392;10.836;2023-04-15T02:17:21;5.67;;;4.53;;
6113;SDS011;3087;48.392;10.836;2023-04-15T02:19:46;6.00;;;4.40;;
6113;SDS011;3087;48.392;10.836;2023-04-15T02:22:12;5.83;;;4.10;;
6113;SDS011;3087;48.392;10.836;2023-04-15T02:24:42;5.97;;;4.47;;
6113;SDS011;3087;48.392;10.836;2023-04-15T02:27:08;7.37;;;4.37;;
6113;SDS011;3087;48.392;10.836;2023-04-15T02:29:34;6.03;;;4.50;;
6113;SDS011;3087;48.392;10.836;2023-04-15T02:32:00;7.70;;;4.70;;
6113;SDS011;3087;48.392;10.836;2023-04-15T02:34:25;7.40;;;4.10;;
6113;SDS011;3087;48.392;10.836;2023-04-15T02:36:51;6.77;;;4.30;;
6113;SDS011;3087;48.392;10.836;2023-04-15T02:39:21;5.43;;;4.47;;
6113;SDS011;3087;48.392;10.836;2023-04-15T02:41:47;7.37;;;4.33;;
6113;SDS011;3087;48.392;10.836;2023-04-15T02:44:16;6.57;;;4.40;;
6113;SDS011;3087;48.392;10.836;2023-04-15T02:46:44;6.70;;;4.80;;
6113;SDS011;3087;48.392;10.836;2023-04-15T02:49:16;8.17;;;4.73;;
6113;SDS011;3087;48.392;10.836;2023-04-15T02:51:42;7.23;;;4.53;;
6113;SDS011;3087;48.392;10.836;2023-04-15T02:54:08;9.07;;;4.37;;
6113;SDS011;3087;48.392;10.836;2023-04-15T02:56:33;12.70;;;4.90;;
6113;SDS011;3087;48.392;10.836;2023-04-15T02:58:59;12.43;;;6.27;;
6113;SDS011;3087;48.392;10.836;2023-04-15T03:01:25;11.70;;;5.37;;
6113;SDS011;3087;48.392;10.836;2023-04-15T03:03:51;13.67;;;4.80;;
6113;SDS011;3087;48.392;10.836;2023-04-15T03:06:16;7.77;;;4.50;;
6113;SDS011;3087;48.392;10.836;2023-04-15T03:08:42;6.63;;;4.60;;
6113;SDS011;3087;48.392;10.836;2023-04-15T03:11:07;6.40;;;4.40;;
6113;SDS011;3087;48.392;10.836;2023-04-15T03:13:33;9.20;;;4.73;;
6113;SDS011;3087;48.392;10.836;2023-04-15T03:15:59;7.67;;;5.20;;
6113;SDS011;3087;48.392;10.836;2023-04-15T03:18:24;8.80;;;4.93;;
6113;SDS011;3087;48.392;10.836;2023-04-15T03:20:50;5.63;;;4.53;;
6113;SDS011;3087;48.392;10.836;2023-04-15T03:23:15;6.43;;;4.67;;
6113;SDS011;3087;48.392;10.836;2023-04-15T03:25:41;6.93;;;4.40;;
6113;SDS011;3087;48.392;10.836;2023-04-15T03:28:06;7.93;;;4.70;;
6113;SDS011;3087;48.392;10.836;2023-04-15T03:30:32;6.13;;;4.37;;
6113;SDS011;3087;48.392;10.836;2023-04-15T03:32:58;6.37;;;4.63;;
6113;SDS011;3087;48.392;10.836;2023-04-15T03:35:23;6.77;;;4.30;;
6113;SDS011;3087;48.392;10.836;2023-04-15T03:37:49;6.60;;;4.53;;
6113;SDS011;3087;48.392;10.836;2023-04-15T03:40:15;7.20;;;4.43;;
6113;SDS011;3087;48.392;10.836;2023-04-15T03:42:40;6.90;;;4.50;;
6113;SDS011;3087;48.392;10.836;2023-04-15T03:45:06;6.43;;;4.67;;
6113;SDS011;3087;48.392;10.836;2023-04-15T03:47:32;6.23;;;4.33;;
6113;SDS011;3087;48.392;10.836;2023-04-15T03:49:58;9.03;;;4.57;;
6113;SDS011;3087;48.392;10.836;2023-04-15T03:52:23;6.57;;;4.40;;
6113;SDS011;3087;48.392;10.836;2023-04-15T03:54:49;7.57;;;4.87;;
6113;SDS011;3087;48.392;10.836;2023-04-15T03:57:15;8.63;;;4.90;;
6113;SDS011;3087;48.392;10.836;2023-04-15T03:59:41;7.73;;;5.20;;
6113;SDS011;3087;48.392;10.836;2023-04-15T04:02:06;8.57;;;5.20;;
6113;SDS011;3087;48.392;10.836;2023-04-15T04:04:32;7.37;;;4.77;;
6113;SDS011;3087;48.392;10.836;2023-04-15T04:06:57;7.70;;;5.63;;
6113;SDS011;3087;48.392;10.836;2023-04-15T04:09:23;6.90;;;5.10;;
6113;SDS011;3087;48.392;10.836;2023-04-15T04:11:49;7.40;;;5.20;;
6113;SDS011;3087;48.392;10.836;2023-04-15T04:14:15;9.10;;;5.87;;
6113;SDS011;3087;48.392;10.836;2023-04-15T04:16:40;6.60;;;4.40;;
6113;SDS011;3087;48.392;10.836;2023-04-15T04:19:06;5.73;;;4.90;;
6113;SDS011;3087;48.392;10.836;2023-04-15T04:21:32;7.80;;;4.47;;
6113;SDS011;3087;48.392;10.836;2023-04-15T04:23:58;9.43;;;4.70;;
6113;SDS011;3087;48.392;10.836;2023-04-15T04:26:24;7.30;;;4.53;;
6113;SDS011;3087;48.392;10.836;2023-04-15T04:28:50;9.43;;;4.97;;
6113;SDS011;3087;48.392;10.836;2023-04-15T04:31:15;8.30;;;4.83;;
6113;SDS011;3087;48.392;10.836;2023-04-15T04:33:41;6.63;;;4.20;;
6113;SDS011;3087;48.392;10.836;2023-04-15T04:36:07;8.93;;;6.40;;
6113;SDS011;3087;48.392;10.836;2023-04-15T04:38:32;8.23;;;4.80;;
6113;SDS011;3087;48.392;10.836;2023-04-15T04:40:58;8.07;;;4.80;;
6113;SDS011;3087;48.392;10.836;2023-04-15T04:43:24;7.83;;;4.80;;
6113;SDS011;3087;48.392;10.836;2023-04-15T04:45:50;7.50;;;4.50;;
6113;SDS011;3087;48.392;10.836;2023-04-15T04:48:15;6.40;;;4.23;;
6113;SDS011;3087;48.392;10.836;2023-04-15T04:50:41;8.27;;;4.10;;
6113;SDS011;3087;48.392;10.836;2023-04-15T04:53:07;10.20;;;4.50;;
6113;SDS011;3087;48.392;10.836;2023-04-15T04:55:33;8.20;;;4.10;;
6113;SDS011;3087;48.392;10.836;2023-04-15T04:58:01;9.70;;;4.80;;
6113;SDS011;3087;48.392;10.836;2023-04-15T05:00:26;5.50;;;3.80;;
6113;SDS011;3087;48.392;10.836;2023-04-15T05:02:53;6.77;;;3.70;;
6113;SDS011;3087;48.392;10.836;2023-04-15T05:05:18;6.70;;;4.03;;
6113;SDS011;3087;48.392;10.836;2023-04-15T05:07:44;5.27;;;3.80;;
6113;SDS011;3087;48.392;10.836;2023-04-15T05:10:10;5.87;;;3.87;;
6113;SDS011;3087;48.392;10.836;2023-04-15T05:12:35;8.53;;;4.53;;
6113;SDS011;3087;48.392;10.836;2023-04-15T05:15:02;7.37;;;3.77;;
6113;SDS011;3087;48.392;10.836;2023-04-15T05:17:29;5.97;;;3.70;;
6113;SDS011;3087;48.392;10.836;2023-04-15T05:19:55;7.50;;;3.93;;
6113;SDS011;3087;48.392;10.836;2023-04-15T05:22:21;6.10;;;3.73;;
6113;SDS011;3087;48.392;10.836;2023-04-15T05:24:47;7.77;;;3.50;;
6113;SDS011;3087;48.392;10.836;2023-04-15T05:27:12;5.47;;;3.70;;
6113;SDS011;3087;48.392;10.836;2023-04-15T05:29:38;6.43;;;3.70;;
6113;SDS011;3087;48.392;10.836;2023-04-15T05:32:03;4.30;;;3.60;;
6113;SDS011;3087;48.392;10.836;2023-04-15T05:34:29;6.00;;;3.63;;
6113;SDS011;3087;48.392;10.836;2023-04-15T05:36:55;6.60;;;4.00;;
6113;SDS011;3087;48.392;10.836;2023-04-15T05:39:21;6.10;;;3.33;;
6113;SDS011;3087;48.392;10.836;2023-04-15T05:41:46;6.30;;;4.03;;
6113;SDS011;3087;48.392;10.836;2023-04-15T05:44:12;5.10;;;3.40;;
6113;SDS011;3087;48.392;10.836;2023-04-15T05:46:37;6.10;;;3.63;;
6113;SDS011;3087;48.392;10.836;2023-04-15T05:49:03;4.67;;;3.93;;
6113;SDS011;3087;48.392;10.836;2023-04-15T05:51:28;5.80;;;3.90;;
6113;SDS011;3087;48.392;10.836;2023-04-15T05:53:54;6.93;;;3.60;;
6113;SDS011;3087;48.392;10.836;2023-04-15T05:56:19;8.50;;;3.93;;
6113;SDS011;3087;48.392;10.836;2023-04-15T05:58:46;5.90;;;3.73;;
6113;SDS011;3087;48.392;10.836;2023-04-15T06:01:11;4.93;;;3.20;;
6113;SDS011;3087;48.392;10.836;2023-04-15T06:03:37;4.70;;;3.17;;
6113;SDS011;3087;48.392;10.836;2023-04-15T06:06:03;5.87;;;3.63;;
6113;SDS011;3087;48.392;10.836;2023-04-15T06:08:29;6.43;;;3.53;;
6113;SDS011;3087;48.392;10.836;2023-04-15T06:10:54;5.37;;;3.30;;
6113;SDS011;3087;48.392;10.836;2023-04-15T06:13:20;4.93;;;3.10;;
6113;SDS011;3087;48.392;10.836;2023-04-15T06:15:46;4.90;;;2.73;;
6113;SDS011;3087;48.392;10.836;2023-04-15T06:18:11;3.80;;;2.97;;
6113;SDS011;3087;48.392;10.836;2023-04-15T06:20:37;6.67;;;3.33;;
6113;SDS011;3087;48.392;10.836;2023-04-15T06:23:02;6.40;;;3.80;;
6113;SDS011;3087;48.392;10.836;2023-04-15T06:25:28;5.67;;;3.60;;
6113;SDS011;3087;48.392;10.836;2023-04-15T06:27:54;4.90;;;3.00;;
6113;SDS011;3087;48.392;10.836;2023-04-15T06:30:19;6.80;;;3.10;;
6113;SDS011;3087;48.392;10.836;2023-04-15T06:32:45;3.83;;;2.77;;
6113;SDS011;3087;48.392;10.836;2023-04-15T06:35:11;4.13;;;2.80;;
6113;SDS011;3087;48.392;10.836;2023-04-15T06:37:36;4.50;;;2.77;;
6113;SDS011;3087;48.392;10.836;2023-04-15T06:40:02;4.73;;;3.60;;
6113;SDS011;3087;48.392;10.836;2023-04-15T06:42:29;7.57;;;2.70;;
6113;SDS011;3087;48.392;10.836;2023-04-15T06:44:55;4.77;;;2.60;;
6113;SDS011;3087;48.392;10.836;2023-04-15T06:47:20;6.17;;;2.83;;
6113;SDS011;3087;48.392;10.836;2023-04-15T06:49:46;3.77;;;3.03;;
6113;SDS011;3087;48.392;10.836;2023-04-15T06:52:12;5.97;;;2.80;;
6113;SDS011;3087;48.392;10.836;2023-04-15T06:54:38;4.07;;;3.07;;
6113;SDS011;3087;48.392;10.836;2023-04-15T06:57:04;3.63;;;3.00;;
6113;SDS011;3087;48.392;10.836;2023-04-15T06:59:31;6.63;;;3.30;;
6113;SDS011;3087;48.392;10.836;2023-04-15T07:01:56;4.57;;;2.73;;
6113;SDS011;3087;48.392;10.836;2023-04-15T07:04:22;6.87;;;2.77;;
6113;SDS011;3087;48.392;10.836;2023-04-15T07:06:48;5.13;;;3.07;;
6113;SDS011;3087;48.392;10.836;2023-04-15T07:09:14;7.53;;;3.97;;
6113;SDS011;3087;48.392;10.836;2023-04-15T07:11:39;5.43;;;2.97;;
6113;SDS011;3087;48.392;10.836;2023-04-15T07:14:05;5.73;;;3.03;;
6113;SDS011;3087;48.392;10.836;2023-04-15T07:16:30;5.53;;;3.10;;
6113;SDS011;3087;48.392;10.836;2023-04-15T07:18:56;7.57;;;4.40;;
6113;SDS011;3087;48.392;10.836;2023-04-15T07:21:22;4.27;;;2.60;;
6113;SDS011;3087;48.392;10.836;2023-04-15T07:23:49;5.67;;;3.27;;
6113;SDS011;3087;48.392;10.836;2023-04-15T07:26:15;5.07;;;2.90;;
6113;SDS011;3087;48.392;10.836;2023-04-15T07:28:40;6.00;;;3.10;;
6113;SDS011;3087;48.392;10.836;2023-04-15T07:31:06;5.67;;;3.43;;
6113;SDS011;3087;48.392;10.836;2023-04-15T07:33:31;6.33;;;3.30;;
6113;SDS011;3087;48.392;10.836;2023-04-15T07:35:57;3.73;;;3.07;;
6113;SDS011;3087;48.392;10.836;2023-04-15T07:38:22;6.70;;;3.63;;
6113;SDS011;3087;48.392;10.836;2023-04-15T07:40:48;4.60;;;2.97;;
6113;SDS011;3087;48.392;10.836;2023-04-15T07:43:14;4.40;;;2.90;;
6113;SDS011;3087;48.392;10.836;2023-04-15T07:45:40;6.03;;;3.33;;
6113;SDS011;3087;48.392;10.836;2023-04-15T07:48:06;4.37;;;3.03;;
6113;SDS011;3087;48.392;10.836;2023-04-15T07:50:32;5.83;;;3.17;;
6113;SDS011;3087;48.392;10.836;2023-04-15T07:52:58;6.00;;;3.27;;
6113;SDS011;3087;48.392;10.836;2023-04-15T07:55:23;6.90;;;3.43;;
6113;SDS011;3087;48.392;10.836;2023-04-15T07:57:49;7.83;;;5.13;;
6113;SDS011;3087;48.392;10.836;2023-04-15T08:00:15;9.33;;;4.53;;
6113;SDS011;3087;48.392;10.836;2023-04-15T08:02:41;4.90;;;3.70;;
6113;SDS011;3087;48.392;10.836;2023-04-15T08:05:07;6.23;;;3.43;;
6113;SDS011;3087;48.392;10.836;2023-04-15T08:07:37;5.40;;;3.43;;
6113;SDS011;3087;48.392;10.836;2023-04-15T08:10:02;4.50;;;2.83;;
6113;SDS011;3087;48.392;10.836;2023-04-15T08:12:29;4.07;;;2.97;;
6113;SDS011;3087;48.392;10.836;2023-04-15T08:14:54;4.37;;;2.67;;
6113;SDS011;3087;48.392;10.836;2023-04-15T08:17:21;6.23;;;3.60;;
6113;SDS011;3087;48.392;10.836;2023-04-15T08:19:47;6.53;;;3.07;;
6113;SDS011;3087;48.392;10.836;2023-04-15T08:22:13;4.43;;;3.27;;
6113;SDS011;3087;48.392;10.836;2023-04-15T08:24:39;5.10;;;3.60;;
6113;SDS011;3087;48.392;10.836;2023-04-15T08:27:04;7.03;;;3.30;;
6113;SDS011;3087;48.392;10.836;2023-04-15T08:29:33;6.17;;;3.33;;
6113;SDS011;3087;48.392;10.836;2023-04-15T08:31:59;6.73;;;3.37;;
6113;SDS011;3087;48.392;10.836;2023-04-15T08:34:25;9.00;;;3.00;;
6113;SDS011;3087;48.392;10.836;2023-04-15T08:36:51;5.03;;;2.97;;
6113;SDS011;3087;48.392;10.836;2023-04-15T08:39:17;5.10;;;3.10;;
6113;SDS011;3087;48.392;10.836;2023-04-15T08:41:46;5.00;;;3.15;;
6113;SDS011;3087;48.392;10.836;2023-04-15T08:44:16;4.57;;;2.92;;
6113;SDS011;3087;48.392;10.836;2023-04-15T08:46:42;7.22;;;3.45;;
6113;SDS011;3087;48.392;10.836;2023-04-15T08:49:11;6.65;;;3.78;;
6113;SDS011;3087;48.392;10.836;2023-04-15T08:51:40;3.85;;;2.80;;
6113;SDS011;3087;48.392;10.836;2023-04-15T08:54:07;6.25;;;3.30;;
6113;SDS011;3087;48.392;10.836;2023-04-15T08:56:34;7.55;;;3.00;;
6113;SDS011;3087;48.392;10.836;2023-04-15T08:59:02;4.68;;;3.40;;
6113;SDS011;3087;48.392;10.836;2023-04-15T09:01:28;4.13;;;3.30;;
6113;SDS011;3087;48.392;10.836;2023-04-15T09:03:54;5.70;;;3.53;;
6113;SDS011;3087;48.392;10.836;2023-04-15T09:06:21;5.40;;;3.30;;
6113;SDS011;3087;48.392;10.836;2023-04-15T09:08:48;4.47;;;2.95;;
6113;SDS011;3087;48.392;10.836;2023-04-15T09:11:14;5.40;;;3.05;;
6113;SDS011;3087;48.392;10.836;2023-04-15T09:13:41;4.05;;;3.10;;
6113;SDS011;3087;48.392;10.836;2023-04-15T09:16:07;6.00;;;3.60;;
6113;SDS011;3087;48.392;10.836;2023-04-15T09:18:34;4.35;;;3.05;;
6113;SDS011;3087;48.392;10.836;2023-04-15T09:23:35;5.05;;;2.88;;
6113;SDS011;3087;48.392;10.836;2023-04-15T09:26:02;4.30;;;3.15;;
6113;SDS011;3087;48.392;10.836;2023-04-15T09:28:28;3.90;;;3.00;;
6113;SDS011;3087;48.392;10.836;2023-04-15T09:30:55;5.95;;;3.50;;
6113;SDS011;3087;48.392;10.836;2023-04-15T09:33:22;5.05;;;3.00;;
6113;SDS011;3087;48.392;10.836;2023-04-15T09:36:01;4.90;;;3.70;;
6113;SDS011;3087;48.392;10.836;2023-04-15T09:38:29;4.53;;;3.30;;
6113;SDS011;3087;48.392;10.836;2023-04-15T09:40:55;7.80;;;3.65;;
6113;SDS011;3087;48.392;10.836;2023-04-15T09:43:22;7.63;;;3.92;;
6113;SDS011;3087;48.392;10.836;2023-04-15T09:46:01;6.55;;;3.40;;
6113;SDS011;3087;48.392;10.836;2023-04-15T09:48:26;4.35;;;3.28;;
6113;SDS011;3087;48.392;10.836;2023-04-15T09:50:53;3.72;;;2.90;;
6113;SDS011;3087;48.392;10.836;2023-04-15T09:53:23;4.63;;;3.60;;
6113;SDS011;3087;48.392;10.836;2023-04-15T09:58:17;5.22;;;3.67;;
6113;SDS011;3087;48.392;10.836;2023-04-15T10:00:43;5.68;;;3.60;;
6113;SDS011;3087;48.392;10.836;2023-04-15T10:03:12;5.45;;;3.92;;
6113;SDS011;3087;48.392;10.836;2023-04-15T10:05:39;4.85;;;3.63;;
6113;SDS011;3087;48.392;10.836;2023-04-15T10:08:05;5.45;;;3.40;;
6113;SDS011;3087;48.392;10.836;2023-04-15T10:10:31;7.38;;;3.85;;
6113;SDS011;3087;48.392;10.836;2023-04-15T10:12:58;4.75;;;3.80;;
6113;SDS011;3087;48.392;10.836;2023-04-15T10:15:24;3.63;;;3.13;;
6113;SDS011;3087;48.392;10.836;2023-04-15T10:17:52;6.53;;;3.67;;
6113;SDS011;3087;48.392;10.836;2023-04-15T10:20:20;6.15;;;4.15;;
6113;SDS011;3087;48.392;10.836;2023-04-15T10:22:47;6.43;;;4.18;;
6113;SDS011;3087;48.392;10.836;2023-04-15T10:25:13;8.13;;;3.65;;
6113;SDS011;3087;48.392;10.836;2023-04-15T10:27:39;3.75;;;3.45;;
6113;SDS011;3087;48.392;10.836;2023-04-15T10:30:06;6.05;;;3.50;;
6113;SDS011;3087;48.392;10.836;2023-04-15T10:32:33;5.93;;;4.03;;
6113;SDS011;3087;48.392;10.836;2023-04-15T10:34:59;4.82;;;3.63;;
6113;SDS011;3087;48.392;10.836;2023-04-15T10:37:32;6.20;;;4.53;;
6113;SDS011;3087;48.392;10.836;2023-04-15T10:42:57;5.32;;;3.90;;
6113;SDS011;3087;48.392;10.836;2023-04-15T10:45:34;5.57;;;3.70;;
6113;SDS011;3087;48.392;10.836;2023-04-15T10:48:02;7.13;;;4.40;;
6113;SDS011;3087;48.392;10.836;2023-04-15T10:50:32;4.85;;;3.70;;
6113;SDS011;3087;48.392;10.836;2023-04-15T10:52:58;6.32;;;4.70;;
6113;SDS011;3087;48.392;10.836;2023-04-15T10:55:26;6.68;;;4.70;;
6113;SDS011;3087;48.392;10.836;2023-04-15T10:57:59;6.07;;;4.53;;
6113;SDS011;3087;48.392;10.836;2023-04-15T11:00:29;7.60;;;4.70;;
6113;SDS011;3087;48.392;10.836;2023-04-15T11:03:06;5.30;;;3.95;;
6113;SDS011;3087;48.392;10.836;2023-04-15T11:05:53;6.43;;;3.00;;
6113;SDS011;3087;48.392;10.836;2023-04-15T11:08:21;4.80;;;2.80;;
6113;SDS011;3087;48.392;10.836;2023-04-15T11:11:19;3.92;;;2.30;;
6113;SDS011;3087;48.392;10.836;2023-04-15T11:13:48;4.07;;;2.38;;
6113;SDS011;3087;48.392;10.836;2023-04-15T11:16:15;4.70;;;2.55;;
6113;SDS011;3087;48.392;10.836;2023-04-15T11:18:41;4.13;;;2.40;;
6113;SDS011;3087;48.392;10.836;2023-04-15T11:21:07;3.28;;;2.38;;
6113;SDS011;3087;48.392;10.836;2023-04-15T11:23:40;4.20;;;2.53;;
6113;SDS011;3087;48.392;10.836;2023-04-15T11:26:11;4.88;;;2.53;;
6113;SDS011;3087;48.392;10.836;2023-04-15T11:28:38;3.05;;;2.30;;
6113;SDS011;3087;48.392;10.836;2023-04-15T11:31:14;3.72;;;2.60;;
6113;SDS011;3087;48.392;10.836;2023-04-15T11:33:54;4.70;;;2.83;;
6113;SDS011;3087;48.392;10.836;2023-04-15T11:36:23;10.27;;;2.50;;
6113;SDS011;3087;48.392;10.836;2023-04-15T11:38:58;4.72;;;2.95;;
6113;SDS011;3087;48.392;10.836;2023-04-15T11:41:24;3.40;;;2.30;;
6113;SDS011;3087;48.392;10.836;2023-04-15T11:43:50;2.50;;;2.25;;
6113;SDS011;3087;48.392;10.836;2023-04-15T11:46:16;3.13;;;2.50;;
6113;SDS011;3087;48.392;10.836;2023-04-15T11:48:43;2.42;;;2.00;;
6113;SDS011;3087;48.392;10.836;2023-04-15T11:51:10;3.97;;;2.20;;
6113;SDS011;3087;48.392;10.836;2023-04-15T11:53:44;3.60;;;2.42;;
6113;SDS011;3087;48.392;10.836;2023-04-15T11:56:21;2.83;;;2.25;;
6113;SDS011;3087;48.392;10.836;2023-04-15T11:58:50;4.63;;;2.92;;
6113;SDS011;3087;48.392;10.836;2023-04-15T12:01:17;7.50;;;3.03;;
6113;SDS011;3087;48.392;10.836;2023-04-15T12:03:46;5.85;;;3.22;;
6113;SDS011;3087;48.392;10.836;2023-04-15T12:11:37;4.05;;;2.70;;
6113;SDS011;3087;48.392;10.836;2023-04-15T12:16:58;3.70;;;2.83;;
6113;SDS011;3087;48.392;10.836;2023-04-15T12:19:26;4.22;;;2.72;;
6113;SDS011;3087;48.392;10.836;2023-04-15T12:22:00;5.53;;;2.58;;
6113;SDS011;3087;48.392;10.836;2023-04-15T12:24:30;4.25;;;2.53;;
6113;SDS011;3087;48.392;10.836;2023-04-15T12:26:58;4.15;;;2.70;;
6113;SDS011;3087;48.392;10.836;2023-04-15T12:29:33;3.28;;;2.97;;
6113;SDS011;3087;48.392;10.836;2023-04-15T12:34:37;5.13;;;3.05;;
6113;SDS011;3087;48.392;10.836;2023-04-15T12:37:04;5.22;;;3.10;;
6113;SDS011;3087;48.392;10.836;2023-04-15T12:39:34;4.85;;;3.17;;
6113;SDS011;3087;48.392;10.836;2023-04-15T12:42:02;4.28;;;3.13;;
6113;SDS011;3087;48.392;10.836;2023-04-15T12:44:28;3.33;;;3.03;;
6113;SDS011;3087;48.392;10.836;2023-04-15T12:46:54;5.50;;;3.00;;
6113;SDS011;3087;48.392;10.836;2023-04-15T12:49:20;4.43;;;2.80;;
6113;SDS011;3087;48.392;10.836;2023-04-15T12:51:50;4.97;;;3.35;;
6113;SDS011;3087;48.392;10.836;2023-04-15T12:54:17;3.50;;;3.17;;
6113;SDS011;3087;48.392;10.836;2023-04-15T12:56:58;4.85;;;3.30;;
6113;SDS011;3087;48.392;10.836;2023-04-15T12:59:24;4.63;;;2.92;;
6113;SDS011;3087;48.392;10.836;2023-04-15T13:01:50;2.90;;;2.50;;
6113;SDS011;3087;48.392;10.836;2023-04-15T13:04:17;4.10;;;2.88;;
6113;SDS011;3087;48.392;10.836;2023-04-15T13:06:44;5.28;;;2.80;;
6113;SDS011;3087;48.392;10.836;2023-04-15T13:09:10;5.05;;;2.95;;
6113;SDS011;3087;48.392;10.836;2023-04-15T13:11:35;4.10;;;2.88;;
6113;SDS011;3087;48.392;10.836;2023-04-15T13:14:02;4.70;;;2.58;;
6113;SDS011;3087;48.392;10.836;2023-04-15T13:16:29;5.32;;;2.80;;
6113;SDS011;3087;48.392;10.836;2023-04-15T13:18:56;5.60;;;3.63;;
6113;SDS011;3087;48.392;10.836;2023-04-15T13:21:22;5.57;;;3.10;;
6113;SDS011;3087;48.392;10.836;2023-04-15T13:23:47;4.43;;;2.85;;
6113;SDS011;3087;48.392;10.836;2023-04-15T13:26:14;4.05;;;2.75;;
6113;SDS011;3087;48.392;10.836;2023-04-15T13:28:41;4.60;;;2.70;;
6113;SDS011;3087;48.392;10.836;2023-04-15T13:31:07;2.78;;;2.10;;
6113;SDS011;3087;48.392;10.836;2023-04-15T13:33:32;5.32;;;2.95;;
6113;SDS011;3087;48.392;10.836;2023-04-15T13:35:58;3.08;;;2.50;;
6113;SDS011;3087;48.392;10.836;2023-04-15T13:38:24;5.35;;;2.97;;
6113;SDS011;3087;48.392;10.836;2023-04-15T13:40:50;4.60;;;3.15;;
6113;SDS011;3087;48.392;10.836;2023-04-15T13:43:15;5.53;;;3.30;;
6113;SDS011;3087;48.392;10.836;2023-04-15T13:45:41;4.82;;;3.42;;
6113;SDS011;3087;48.392;10.836;2023-04-15T13:48:07;3.80;;;3.40;;
6113;SDS011;3087;48.392;10.836;2023-04-15T13:50:33;5.85;;;3.70;;
6113;SDS011;3087;48.392;10.836;2023-04-15T13:53:00;5.63;;;3.22;;
6113;SDS011;3087;48.392;10.836;2023-04-15T13:55:26;5.57;;;3.20;;
6113;SDS011;3087;48.392;10.836;2023-04-15T13:57:51;3.20;;;2.72;;
6113;SDS011;3087;48.392;10.836;2023-04-15T14:00:17;4.85;;;3.00;;
6113;SDS011;3087;48.392;10.836;2023-04-15T14:02:43;2.95;;;2.65;;
6113;SDS011;3087;48.392;10.836;2023-04-15T14:05:09;7.03;;;3.40;;
6113;SDS011;3087;48.392;10.836;2023-04-15T14:07:37;3.00;;;2.70;;
6113;SDS011;3087;48.392;10.836;2023-04-15T14:10:03;5.13;;;3.40;;
6113;SDS011;3087;48.392;10.836;2023-04-15T14:12:39;4.95;;;3.58;;
6113;SDS011;3087;48.392;10.836;2023-04-15T14:15:05;7.28;;;5.38;;
6113;SDS011;3087;48.392;10.836;2023-04-15T14:17:34;4.05;;;3.63;;
6113;SDS011;3087;48.392;10.836;2023-04-15T14:20:00;4.25;;;3.00;;
6113;SDS011;3087;48.392;10.836;2023-04-15T14:22:25;2.72;;;2.45;;
6113;SDS011;3087;48.392;10.836;2023-04-15T14:24:51;5.40;;;2.67;;
6113;SDS011;3087;48.392;10.836;2023-04-15T14:27:18;2.95;;;2.60;;
6113;SDS011;3087;48.392;10.836;2023-04-15T14:29:43;5.28;;;3.20;;
6113;SDS011;3087;48.392;10.836;2023-04-15T14:32:09;5.32;;;2.85;;
6113;SDS011;3087;48.392;10.836;2023-04-15T14:34:34;5.53;;;2.80;;
6113;SDS011;3087;48.392;10.836;2023-04-15T14:37:01;5.40;;;4.05;;
6113;SDS011;3087;48.392;10.836;2023-04-15T14:39:27;5.00;;;3.45;;
6113;SDS011;3087;48.392;10.836;2023-04-15T14:41:52;4.43;;;3.33;;
6113;SDS011;3087;48.392;10.836;2023-04-15T14:44:19;6.28;;;3.33;;
6113;SDS011;3087;48.392;10.836;2023-04-15T14:46:45;2.90;;;2.70;;
6113;SDS011;3087;48.392;10.836;2023-04-15T14:49:10;6.18;;;3.42;;
6113;SDS011;3087;48.392;10.836;2023-04-15T14:51:36;3.78;;;3.00;;
6113;SDS011;3087;48.392;10.836;2023-04-15T14:54:01;3.80;;;2.80;;
6113;SDS011;3087;48.392;10.836;2023-04-15T14:56:27;4.38;;;2.70;;
6113;SDS011;3087;48.392;10.836;2023-04-15T14:58:53;3.50;;;3.05;;
6113;SDS011;3087;48.392;10.836;2023-04-15T15:01:18;4.13;;;3.00;;
6113;SDS011;3087;48.392;10.836;2023-04-15T15:03:45;7.82;;;4.68;;
6113;SDS011;3087;48.392;10.836;2023-04-15T15:06:10;5.75;;;4.13;;
6113;SDS011;3087;48.392;10.836;2023-04-15T15:08:36;4.60;;;2.97;;
6113;SDS011;3087;48.392;10.836;2023-04-15T15:11:02;3.58;;;3.22;;
6113;SDS011;3087;48.392;10.836;2023-04-15T15:13:27;5.05;;;2.70;;
6113;SDS011;3087;48.392;10.836;2023-04-15T15:15:53;3.80;;;3.05;;